Time;durP1;ratioP1;P1;durP2;ratioP2;P2;SDS_P1;SDS_P2;PMS_P1;PMS_P2;Temp;Humidity;BMP_temperature;BMP_pressure;BME280_temperature;BME280_humidity;BME280_pressure;Samples;Min_cycle;Max_cycle;Signal;HPM_P1;HPM_P2
2022/08/02 00:00:51;;;;;;;3.53;2.70;;;;;;;;;;4909330;29;20495;-76
2022/08/02 00:03:16;;;;;;;4.83;2.90;;;;;;;;;;4904394;28;20235;-75
2022/08/02 00:05:44;;;;;;;2.90;2.60;;;;;;;;;;4910468;29;20232;-76
2022/08/02 00:08:10;;;;;;;5.13;3.07;;;;;;;;;;4911335;28;20748;-74
2022/08/02 00:10:35;;;;;;;3.43;2.87;;;;;;;;;;4912537;29;20227;-76
2022/08/02 00:13:05;;;;;;;4.07;2.83;;;;;;;;;;4927861;28;20250;-76
2022/08/02 00:15:33;;;;;;;4.73;2.63;;;;;;;;;;4897347;29;20223;-76
2022/08/02 00:17:58;;;;;;;5.77;3.00;;;;;;;;;;4911933;29;20237;-76
2022/08/02 00:20:24;;;;;;;5.37;3.00;;;;;;;;;;4910408;28;20223;-76
2022/08/02 00:22:52;;;;;;;7.27;3.57;;;;;;;;;;4913048;29;20231;-75
2022/08/02 00:25:18;;;;;;;5.97;3.47;;;;;;;;;;4919033;28;20247;-76
2022/08/02 00:27:43;;;;;;;3.67;2.90;;;;;;;;;;4914136;29;20235;-76
2022/08/02 00:30:12;;;;;;;4.43;2.87;;;;;;;;;;4925891;28;20245;-76
2022/08/02 00:32:45;;;;;;;4.17;2.80;;;;;;;;;;4926035;28;20999;-76
2022/08/02 00:35:11;;;;;;;4.70;2.37;;;;;;;;;;4921991;28;20235;-76
2022/08/02 00:37:40;;;;;;;3.40;2.50;;;;;;;;;;4897195;29;20242;-76
2022/08/02 00:40:11;;;;;;;3.53;2.60;;;;;;;;;;4939664;28;20702;-76
2022/08/02 00:42:42;;;;;;;4.57;2.80;;;;;;;;;;4907435;29;20224;-76
2022/08/02 00:45:08;;;;;;;4.13;2.77;;;;;;;;;;4912978;28;20298;-76
2022/08/02 00:47:36;;;;;;;6.13;2.70;;;;;;;;;;4897581;29;20235;-76
2022/08/02 00:50:05;;;;;;;5.23;2.90;;;;;;;;;;4920463;28;20228;-76
2022/08/02 00:52:33;;;;;;;2.73;2.53;;;;;;;;;;4891415;29;20279;-77
2022/08/02 00:55:00;;;;;;;3.43;2.63;;;;;;;;;;4910454;29;20271;-76
2022/08/02 00:57:29;;;;;;;3.07;2.80;;;;;;;;;;4923944;28;20239;-75
2022/08/02 00:59:59;;;;;;;3.47;2.70;;;;;;;;;;4922358;28;20237;-77
2022/08/02 01:02:24;;;;;;;5.60;2.70;;;;;;;;;;4922427;28;20220;-76
2022/08/02 01:04:50;;;;;;;3.73;2.73;;;;;;;;;;4910535;29;20593;-76
2022/08/02 01:07:16;;;;;;;3.57;2.67;;;;;;;;;;4942542;28;20721;-76
2022/08/02 01:09:41;;;;;;;5.40;2.60;;;;;;;;;;4923621;28;20756;-75
2022/08/02 01:12:11;;;;;;;3.80;2.30;;;;;;;;;;4893678;28;20260;-76
2022/08/02 01:14:39;;;;;;;3.83;2.30;;;;;;;;;;4928815;28;20234;-76
2022/08/02 01:17:15;;;;;;;3.80;2.50;;;;;;;;;;4912872;28;20236;-75
2022/08/02 01:20:27;;;;;;;4.83;2.50;;;;;;;;;;4909300;29;20784;-76
2022/08/02 01:23:12;;;;;;;3.50;2.50;;;;;;;;;;4894118;29;20228;-76
2022/08/02 01:25:53;;;;;;;2.67;2.47;;;;;;;;;;4908532;29;20410;-76
2022/08/02 01:28:37;;;;;;;4.03;2.50;;;;;;;;;;4929897;28;20353;-76
2022/08/02 01:31:17;;;;;;;2.57;2.20;;;;;;;;;;4924146;28;20227;-75
2022/08/02 01:33:49;;;;;;;5.40;2.83;;;;;;;;;;4914260;29;21066;-76
2022/08/02 01:36:18;;;;;;;5.30;2.50;;;;;;;;;;4908784;28;20219;-77
2022/08/02 01:38:46;;;;;;;3.00;2.40;;;;;;;;;;4928303;28;20346;-75
2022/08/02 01:41:16;;;;;;;3.10;2.30;;;;;;;;;;4901373;29;20224;-76
2022/08/02 01:43:42;;;;;;;4.67;2.33;;;;;;;;;;4895779;29;20230;-76
2022/08/02 01:46:08;;;;;;;2.80;2.10;;;;;;;;;;4908955;28;20620;-76
2022/08/02 01:48:33;;;;;;;4.70;2.40;;;;;;;;;;4923526;28;20234;-76
2022/08/02 01:50:59;;;;;;;3.30;2.20;;;;;;;;;;4907961;29;20232;-76
2022/08/02 01:53:25;;;;;;;4.57;2.10;;;;;;;;;;4905534;28;20247;-76
2022/08/02 01:55:52;;;;;;;3.40;2.20;;;;;;;;;;4920603;29;20640;-76
2022/08/02 01:58:21;;;;;;;3.73;2.43;;;;;;;;;;4875920;28;20223;-76
2022/08/02 02:00:47;;;;;;;3.63;2.43;;;;;;;;;;4908703;29;20622;-76
2022/08/02 02:03:13;;;;;;;4.73;2.60;;;;;;;;;;4893633;28;20212;-77
2022/08/02 02:05:39;;;;;;;2.73;2.47;;;;;;;;;;4894900;29;20227;-77
2022/08/02 02:08:07;;;;;;;2.53;2.20;;;;;;;;;;4911990;28;20239;-77
2022/08/02 02:10:39;;;;;;;6.30;2.60;;;;;;;;;;4894271;29;20275;-75
2022/08/02 02:13:10;;;;;;;2.50;2.23;;;;;;;;;;4896876;28;20239;-76
2022/08/02 02:15:39;;;;;;;2.30;2.10;;;;;;;;;;4895136;29;20231;-77
2022/08/02 02:18:07;;;;;;;2.57;2.20;;;;;;;;;;4925880;28;20285;-76
2022/08/02 02:20:35;;;;;;;2.50;2.20;;;;;;;;;;4867206;29;20227;-75
2022/08/02 02:23:03;;;;;;;2.67;2.40;;;;;;;;;;4924551;28;20271;-76
2022/08/02 02:25:30;;;;;;;5.17;2.47;;;;;;;;;;4879193;29;20322;-76
2022/08/02 02:28:04;;;;;;;2.50;2.23;;;;;;;;;;4905856;29;20618;-76
2022/08/02 02:30:30;;;;;;;2.20;2.10;;;;;;;;;;4910798;29;20227;-76
2022/08/02 02:32:57;;;;;;;3.57;2.50;;;;;;;;;;4902696;29;20234;-76
2022/08/02 02:35:23;;;;;;;3.77;2.60;;;;;;;;;;4909529;28;20227;-76
2022/08/02 02:37:48;;;;;;;2.40;2.20;;;;;;;;;;4896077;29;20721;-76
2022/08/02 02:40:14;;;;;;;2.87;2.43;;;;;;;;;;4925919;28;20251;-75
2022/08/02 02:42:42;;;;;;;3.53;2.40;;;;;;;;;;4914146;29;20755;-76
2022/08/02 02:45:08;;;;;;;2.50;2.00;;;;;;;;;;4912213;28;20330;-75
2022/08/02 02:47:36;;;;;;;2.63;2.43;;;;;;;;;;4926816;29;20231;-76
2022/08/02 02:50:04;;;;;;;6.10;2.37;;;;;;;;;;4912228;28;20726;-76
2022/08/02 02:52:34;;;;;;;3.03;2.30;;;;;;;;;;4915801;29;20238;-76
2022/08/02 02:55:00;;;;;;;3.57;2.20;;;;;;;;;;4912096;29;20220;-76
2022/08/02 02:57:25;;;;;;;2.33;2.10;;;;;;;;;;4899410;28;20231;-75
2022/08/02 02:59:53;;;;;;;2.60;2.40;;;;;;;;;;4898164;29;20727;-75
2022/08/02 03:02:21;;;;;;;2.50;2.03;;;;;;;;;;4925833;28;20664;-76
2022/08/02 03:04:46;;;;;;;2.40;2.20;;;;;;;;;;4912592;29;20240;-75
2022/08/02 03:07:12;;;;;;;2.37;2.17;;;;;;;;;;4935596;28;20236;-75
2022/08/02 03:09:40;;;;;;;2.23;2.03;;;;;;;;;;4932239;29;20233;-76
2022/08/02 03:12:08;;;;;;;2.73;2.03;;;;;;;;;;4928135;28;20224;-76
2022/08/02 03:14:34;;;;;;;5.10;2.30;;;;;;;;;;4897696;29;20232;-77
2022/08/02 03:16:59;;;;;;;3.30;2.23;;;;;;;;;;4913373;29;20817;-74
2022/08/02 03:19:25;;;;;;;2.87;2.60;;;;;;;;;;4896403;28;20230;-76
2022/08/02 03:21:51;;;;;;;3.87;2.33;;;;;;;;;;4911645;29;20267;-76
2022/08/02 03:24:19;;;;;;;5.33;2.40;;;;;;;;;;4900020;28;20220;-75
2022/08/02 03:26:44;;;;;;;3.50;2.37;;;;;;;;;;4911546;29;20239;-75
2022/08/02 03:29:10;;;;;;;2.47;2.10;;;;;;;;;;4891423;28;20314;-75
2022/08/02 03:31:36;;;;;;;2.40;2.20;;;;;;;;;;4907897;29;20235;-75
2022/08/02 03:34:06;;;;;;;4.00;2.67;;;;;;;;;;4915368;29;20238;-73
2022/08/02 03:36:34;;;;;;;2.53;2.33;;;;;;;;;;4923175;28;20307;-75
2022/08/02 03:39:00;;;;;;;3.53;2.53;;;;;;;;;;4909398;29;21016;-74
2022/08/02 03:41:25;;;;;;;2.90;2.50;;;;;;;;;;4912990;28;20227;-74
2022/08/02 03:43:51;;;;;;;2.40;2.00;;;;;;;;;;4910243;29;20239;-73
2022/08/02 03:46:18;;;;;;;3.20;2.57;;;;;;;;;;4888886;28;20247;-74
2022/08/02 03:48:45;;;;;;;2.53;2.33;;;;;;;;;;4893058;29;20223;-73
2022/08/02 03:51:11;;;;;;;2.40;2.20;;;;;;;;;;4931459;28;20225;-74
2022/08/02 03:53:39;;;;;;;2.40;2.20;;;;;;;;;;4897175;29;20616;-73
2022/08/02 03:56:05;;;;;;;2.93;2.00;;;;;;;;;;4924849;28;20262;-75
2022/08/02 03:58:31;;;;;;;3.27;2.57;;;;;;;;;;4926968;28;20610;-74
2022/08/02 04:00:56;;;;;;;3.03;2.40;;;;;;;;;;4896089;29;20235;-73
2022/08/02 04:03:22;;;;;;;2.50;2.30;;;;;;;;;;4879035;28;20238;-73
2022/08/02 04:05:53;;;;;;;4.50;2.60;;;;;;;;;;4898066;29;20969;-75
2022/08/02 04:08:20;;;;;;;2.47;2.27;;;;;;;;;;4898090;28;20747;-73
2022/08/02 04:13:34;;;;;;;2.57;2.30;;;;;;;;;;4926454;28;20220;-73
2022/08/02 04:16:13;;;;;;;5.87;2.50;;;;;;;;;;4899439;29;20665;-76
2022/08/02 04:18:44;;;;;;;3.63;2.50;;;;;;;;;;4925772;28;20611;-73
2022/08/02 04:21:12;;;;;;;4.00;2.27;;;;;;;;;;4906546;28;20228;-74
2022/08/02 04:23:41;;;;;;;5.50;2.60;;;;;;;;;;4914048;29;20231;-73
2022/08/02 04:26:06;;;;;;;2.43;2.13;;;;;;;;;;4910889;28;20279;-73
2022/08/02 04:28:32;;;;;;;6.40;2.53;;;;;;;;;;4912766;29;20622;-75
2022/08/02 04:30:57;;;;;;;2.73;2.37;;;;;;;;;;4894326;29;20227;-74
2022/08/02 04:33:25;;;;;;;2.40;2.20;;;;;;;;;;4922400;28;20231;-72
2022/08/02 04:35:53;;;;;;;3.67;2.40;;;;;;;;;;4896589;29;20231;-75
2022/08/02 04:38:18;;;;;;;3.00;2.00;;;;;;;;;;4888655;28;20234;-74
2022/08/02 04:40:51;;;;;;;4.33;2.00;;;;;;;;;;4898973;29;20670;-73
2022/08/02 04:43:17;;;;;;;3.33;2.20;;;;;;;;;;4910088;28;20336;-73
2022/08/02 04:45:43;;;;;;;2.37;2.00;;;;;;;;;;4911727;29;20314;-73
2022/08/02 04:48:11;;;;;;;2.37;1.90;;;;;;;;;;4880154;28;20231;-73
2022/08/02 04:50:39;;;;;;;3.53;2.30;;;;;;;;;;4912496;29;20230;-73
2022/08/02 04:53:07;;;;;;;2.57;2.20;;;;;;;;;;4908785;28;20231;-73
2022/08/02 04:55:33;;;;;;;2.93;2.30;;;;;;;;;;4897583;29;20219;-73
2022/08/02 04:57:58;;;;;;;2.40;2.20;;;;;;;;;;4899186;29;20232;-73
2022/08/02 05:00:25;;;;;;;3.87;1.90;;;;;;;;;;4913553;28;20223;-73
2022/08/02 05:02:51;;;;;;;3.17;2.13;;;;;;;;;;4911226;29;20239;-73
2022/08/02 05:05:17;;;;;;;2.47;2.27;;;;;;;;;;4896340;28;20221;-73
2022/08/02 05:07:44;;;;;;;2.70;2.50;;;;;;;;;;4897148;29;20227;-75
2022/08/02 05:10:10;;;;;;;3.23;2.57;;;;;;;;;;4909532;28;20694;-73
2022/08/02 05:12:39;;;;;;;5.90;2.70;;;;;;;;;;4880895;29;20346;-72
2022/08/02 05:15:08;;;;;;;3.47;3.10;;;;;;;;;;4907931;28;20318;-73
2022/08/02 05:17:33;;;;;;;4.50;3.30;;;;;;;;;;4881433;29;20238;-73
2022/08/02 05:19:59;;;;;;;3.73;3.20;;;;;;;;;;4908433;29;20227;-74
2022/08/02 05:22:24;;;;;;;4.07;3.70;;;;;;;;;;4907410;28;20227;-72
2022/08/02 05:24:50;;;;;;;4.00;3.70;;;;;;;;;;4924345;28;20235;-73
2022/08/02 05:27:20;;;;;;;6.07;3.83;;;;;;;;;;4908934;28;20777;-73
2022/08/02 05:29:50;;;;;;;4.17;3.23;;;;;;;;;;4912273;29;20234;-74
2022/08/02 05:32:16;;;;;;;3.60;3.10;;;;;;;;;;4906897;29;20236;-74
2022/08/02 05:34:44;;;;;;;4.30;3.27;;;;;;;;;;4911063;29;20724;-73
2022/08/02 05:37:14;;;;;;;4.90;3.30;;;;;;;;;;4926283;28;20236;-74
2022/08/02 05:39:42;;;;;;;6.50;3.53;;;;;;;;;;4943287;28;20333;-75
2022/08/02 05:42:10;;;;;;;4.73;3.53;;;;;;;;;;4893025;28;20770;-73
2022/08/02 05:44:38;;;;;;;3.47;3.17;;;;;;;;;;4908709;29;20219;-73
2022/08/02 05:47:03;;;;;;;4.63;3.73;;;;;;;;;;4925724;28;20227;-73
2022/08/02 05:49:31;;;;;;;4.30;3.50;;;;;;;;;;4908578;29;20299;-74
2022/08/02 05:52:08;;;;;;;3.80;3.40;;;;;;;;;;4923903;28;20725;-73
2022/08/02 05:54:44;;;;;;;10.00;3.80;;;;;;;;;;4924850;29;20227;-73
2022/08/02 05:57:40;;;;;;;5.83;3.60;;;;;;;;;;4911398;28;21231;-73
2022/08/02 06:00:11;;;;;;;3.73;3.30;;;;;;;;;;4921961;28;20266;-74
2022/08/02 06:02:47;;;;;;;6.87;3.40;;;;;;;;;;4897977;29;20222;-73
2022/08/02 06:05:14;;;;;;;7.57;3.50;;;;;;;;;;4906506;28;20242;-74
2022/08/02 06:07:43;;;;;;;5.43;3.40;;;;;;;;;;4895853;29;20262;-74
2022/08/02 06:10:12;;;;;;;4.33;3.20;;;;;;;;;;4875391;28;20243;-74
2022/08/02 06:12:50;;;;;;;4.27;3.00;;;;;;;;;;4911328;29;20258;-73
2022/08/02 06:15:20;;;;;;;9.47;3.30;;;;;;;;;;4893708;28;20253;-74
2022/08/02 06:17:46;;;;;;;6.53;4.27;;;;;;;;;;4913901;29;20234;-74
2022/08/02 06:20:12;;;;;;;5.97;4.37;;;;;;;;;;4928120;28;20228;-74
2022/08/02 06:22:42;;;;;;;9.40;4.10;;;;;;;;;;4927405;28;20228;-73
2022/08/02 06:25:10;;;;;;;4.43;2.67;;;;;;;;;;4913256;28;20238;-75
2022/08/02 06:27:36;;;;;;;6.63;2.77;;;;;;;;;;4929312;28;20283;-74
2022/08/02 06:30:05;;;;;;;4.67;2.70;;;;;;;;;;4879552;29;20223;-72
2022/08/02 06:32:33;;;;;;;6.68;2.60;;;;;;;;;;4930368;29;20259;-74
2022/08/02 06:34:59;;;;;;;5.10;2.50;;;;;;;;;;4912199;29;20376;-75
2022/08/02 06:37:43;;;;;;;2.13;1.75;;;;;;;;;;4908964;28;20228;-72
2022/08/02 06:40:24;;;;;;;3.03;1.70;;;;;;;;;;4914842;28;20275;-73
2022/08/02 06:43:30;;;;;;;5.30;1.70;;;;;;;;;;4913617;29;20239;-74
2022/08/02 06:45:58;;;;;;;5.43;1.85;;;;;;;;;;4938827;28;20247;-75
2022/08/02 06:48:26;;;;;;;4.60;1.70;;;;;;;;;;4923840;28;20271;-75
2022/08/02 06:50:51;;;;;;;7.85;1.65;;;;;;;;;;4907762;29;20219;-75
2022/08/02 06:53:19;;;;;;;2.65;1.60;;;;;;;;;;4926668;28;20219;-75
2022/08/02 06:55:47;;;;;;;6.28;1.75;;;;;;;;;;4931268;29;20306;-75
2022/08/02 06:58:13;;;;;;;5.65;1.90;;;;;;;;;;4927150;28;20231;-75
2022/08/02 07:00:42;;;;;;;4.60;1.52;;;;;;;;;;4899827;29;20232;-74
2022/08/02 07:03:10;;;;;;;3.47;1.60;;;;;;;;;;4897178;28;20226;-74
2022/08/02 07:05:38;;;;;;;4.78;1.60;;;;;;;;;;4898854;29;20235;-74
2022/08/02 07:08:05;;;;;;;4.88;1.73;;;;;;;;;;4894180;28;20609;-75
2022/08/02 07:10:31;;;;;;;6.13;1.67;;;;;;;;;;4910181;29;20239;-75
2022/08/02 07:12:59;;;;;;;8.65;2.22;;;;;;;;;;4897177;29;20239;-74
2022/08/02 07:15:25;;;;;;;2.75;1.50;;;;;;;;;;4910076;28;20314;-74
2022/08/02 07:17:53;;;;;;;4.25;1.73;;;;;;;;;;4912874;29;20670;-74
2022/08/02 07:20:18;;;;;;;6.30;1.98;;;;;;;;;;4924492;28;20227;-75
2022/08/02 07:22:46;;;;;;;6.13;1.90;;;;;;;;;;4926901;29;20228;-75
2022/08/02 07:25:14;;;;;;;3.95;1.70;;;;;;;;;;4908782;28;20231;-76
2022/08/02 07:27:39;;;;;;;6.85;1.67;;;;;;;;;;4907629;29;20272;-75
2022/08/02 07:30:05;;;;;;;9.60;2.20;;;;;;;;;;4897882;28;20693;-73
2022/08/02 07:32:31;;;;;;;3.83;1.88;;;;;;;;;;4913205;29;20307;-76
2022/08/02 07:34:59;;;;;;;5.07;1.55;;;;;;;;;;4906804;29;20241;-73
2022/08/02 07:37:29;;;;;;;6.38;1.80;;;;;;;;;;4943384;28;20232;-75
2022/08/02 07:39:55;;;;;;;5.55;1.67;;;;;;;;;;4894816;23;20887;-86
2022/08/02 07:42:20;;;;;;;3.83;1.70;;;;;;;;;;4893186;29;20231;-89
2022/08/02 07:44:48;;;;;;;7.78;1.88;;;;;;;;;;4904648;29;20238;-88
2022/08/02 07:47:16;;;;;;;5.85;1.77;;;;;;;;;;4904500;29;20246;-86
2022/08/02 07:49:44;;;;;;;4.82;1.90;;;;;;;;;;4902346;29;20704;-86
2022/08/02 07:52:09;;;;;;;6.22;1.70;;;;;;;;;;4904950;29;20701;-89
2022/08/02 07:54:35;;;;;;;4.40;1.45;;;;;;;;;;4902397;29;20354;-89
2022/08/02 07:57:02;;;;;;;6.97;1.70;;;;;;;;;;4921801;29;20668;-86
2022/08/02 07:59:27;;;;;;;4.85;1.80;;;;;;;;;;4920129;29;20712;-87
2022/08/02 08:01:53;;;;;;;4.20;1.63;;;;;;;;;;4926054;29;20230;-88
2022/08/02 08:04:23;;;;;;;2.75;1.45;;;;;;;;;;4890626;29;20277;-85
2022/08/02 08:06:52;;;;;;;3.42;1.60;;;;;;;;;;4908201;29;20241;-86
2022/08/02 08:09:18;;;;;;;4.40;1.55;;;;;;;;;;4892529;29;20239;-86
2022/08/02 08:11:48;;;;;;;8.23;2.05;;;;;;;;;;4889191;29;20320;-87
2022/08/02 08:14:14;;;;;;;7.68;1.80;;;;;;;;;;4911391;29;20387;-88
2022/08/02 08:16:43;;;;;;;3.70;1.58;;;;;;;;;;4912227;29;20234;-87
2022/08/02 08:19:12;;;;;;;5.80;2.10;;;;;;;;;;4924006;29;20228;-86
2022/08/02 08:21:37;;;;;;;6.03;1.60;;;;;;;;;;4927800;29;20257;-86
2022/08/02 08:24:08;;;;;;;7.30;1.92;;;;;;;;;;4904970;29;20257;-85
2022/08/02 08:26:35;;;;;;;3.22;1.52;;;;;;;;;;4919724;29;20234;-86
2022/08/02 08:29:01;;;;;;;4.50;1.85;;;;;;;;;;4933430;29;20664;-86
2022/08/02 08:31:28;;;;;;;4.90;1.80;;;;;;;;;;4926313;28;20220;-84
2022/08/02 08:33:54;;;;;;;6.25;1.63;;;;;;;;;;4925167;29;20238;-86
2022/08/02 08:36:22;;;;;;;5.00;1.90;;;;;;;;;;4914837;28;20232;-86
2022/08/02 08:38:49;;;;;;;4.90;1.77;;;;;;;;;;4912153;29;20313;-86
2022/08/02 08:41:16;;;;;;;7.45;2.00;;;;;;;;;;4931792;29;20279;-85
2022/08/02 08:43:41;;;;;;;3.90;1.80;;;;;;;;;;4923561;29;20235;-84
2022/08/02 08:46:08;;;;;;;4.18;1.83;;;;;;;;;;4942339;29;20227;-87
2022/08/02 08:48:34;;;;;;;4.70;1.92;;;;;;;;;;4916244;29;20253;-84
2022/08/02 08:51:18;;;;;;;7.60;1.98;;;;;;;;;;4926581;29;20227;-86
2022/08/02 08:53:47;;;;;;;4.90;1.83;;;;;;;;;;4956669;29;20219;-87
2022/08/02 08:56:16;;;;;;;4.15;1.70;;;;;;;;;;4926682;29;20238;-83
2022/08/02 08:58:46;;;;;;;5.53;1.90;;;;;;;;;;4931370;29;20225;-85
2022/08/02 09:01:13;;;;;;;4.03;1.88;;;;;;;;;;4919604;29;20338;-87
2022/08/02 09:03:47;;;;;;;3.85;1.73;;;;;;;;;;4926125;29;20287;-86
2022/08/02 09:06:13;;;;;;;5.20;1.95;;;;;;;;;;4943386;29;20255;-85
2022/08/02 09:08:39;;;;;;;6.03;2.05;;;;;;;;;;4942720;29;20508;-86
2022/08/02 09:11:17;;;;;;;5.35;1.67;;;;;;;;;;4922544;29;20321;-83
2022/08/02 09:13:50;;;;;;;3.97;1.90;;;;;;;;;;4940385;29;20215;-85
2022/08/02 09:16:38;;;;;;;2.63;1.55;;;;;;;;;;4937403;29;20238;-84
2022/08/02 09:19:23;;;;;;;3.70;1.60;;;;;;;;;;4927252;29;20285;-85
2022/08/02 09:21:59;;;;;;;2.78;1.70;;;;;;;;;;4926947;29;20262;-85
2022/08/02 09:24:27;;;;;;;5.63;1.58;;;;;;;;;;4922932;29;20265;-86
2022/08/02 09:26:53;;;;;;;5.32;2.08;;;;;;;;;;4912572;29;20235;-84
2022/08/02 09:29:22;;;;;;;4.00;1.80;;;;;;;;;;4935286;29;21686;-86
2022/08/02 09:31:50;;;;;;;5.65;1.75;;;;;;;;;;4895276;29;20347;-85
2022/08/02 09:34:19;;;;;;;3.55;1.80;;;;;;;;;;4930706;28;20222;-86
2022/08/02 09:36:45;;;;;;;4.80;1.70;;;;;;;;;;4909707;29;20223;-85
2022/08/02 09:39:13;;;;;;;4.20;1.60;;;;;;;;;;4926492;28;20917;-86
2022/08/02 09:41:40;;;;;;;3.40;1.70;;;;;;;;;;4922101;29;20289;-85
2022/08/02 09:44:10;;;;;;;3.20;1.67;;;;;;;;;;4900991;29;20230;-87
2022/08/02 09:46:37;;;;;;;4.15;1.67;;;;;;;;;;4903043;29;20250;-86
2022/08/02 09:49:07;;;;;;;3.08;1.60;;;;;;;;;;4904497;29;20313;-85
2022/08/02 09:51:41;;;;;;;2.95;1.48;;;;;;;;;;4941328;29;20225;-85
2022/08/02 09:54:11;;;;;;;2.40;1.60;;;;;;;;;;4893395;29;20231;-86
2022/08/02 09:56:48;;;;;;;5.38;1.73;;;;;;;;;;4925617;29;20219;-86
2022/08/02 09:59:17;;;;;;;2.30;1.40;;;;;;;;;;4927060;29;20244;-87
2022/08/02 10:01:45;;;;;;;4.43;1.33;;;;;;;;;;4921757;29;20715;-83
2022/08/02 10:04:12;;;;;;;5.53;1.65;;;;;;;;;;4918258;29;20316;-85
2022/08/02 10:06:42;;;;;;;2.42;1.50;;;;;;;;;;4929483;29;20238;-85
2022/08/02 10:09:09;;;;;;;3.42;1.50;;;;;;;;;;4925892;29;20228;-86
2022/08/02 10:11:34;;;;;;;5.65;1.70;;;;;;;;;;4914746;29;20227;-86
2022/08/02 10:14:06;;;;;;;4.63;1.60;;;;;;;;;;4911672;29;20674;-85
2022/08/02 10:16:38;;;;;;;2.17;1.33;;;;;;;;;;4944309;29;20715;-84
2022/08/02 10:19:05;;;;;;;5.57;1.70;;;;;;;;;;4904087;29;20280;-85
2022/08/02 10:21:51;;;;;;;3.65;1.50;;;;;;;;;;4913892;29;20222;-85
2022/08/02 10:24:20;;;;;;;3.90;1.75;;;;;;;;;;4926617;29;20338;-84
2022/08/02 10:26:48;;;;;;;3.75;1.58;;;;;;;;;;4938388;29;20235;-88
2022/08/02 10:29:29;;;;;;;3.22;1.65;;;;;;;;;;4906736;29;20227;-88
2022/08/02 10:32:09;;;;;;;5.32;1.60;;;;;;;;;;4926333;29;20231;-85
2022/08/02 10:34:53;;;;;;;3.90;1.30;;;;;;;;;;4917602;29;20251;-87
2022/08/02 10:37:24;;;;;;;2.28;1.40;;;;;;;;;;4940320;29;20258;-86
2022/08/02 10:39:54;;;;;;;2.65;1.60;;;;;;;;;;4932261;29;20258;-84
2022/08/02 10:42:47;;;;;;;3.88;1.42;;;;;;;;;;4917900;29;20227;-87
2022/08/02 10:45:14;;;;;;;1.98;1.40;;;;;;;;;;4924718;29;20271;-85
2022/08/02 10:48:00;;;;;;;2.22;1.30;;;;;;;;;;4912416;29;20219;-87
2022/08/02 10:50:44;;;;;;;4.20;1.40;;;;;;;;;;4926240;29;20215;-86
2022/08/02 10:53:27;;;;;;;3.13;1.52;;;;;;;;;;4949266;28;20618;-87
2022/08/02 10:55:54;;;;;;;4.05;1.40;;;;;;;;;;4955363;29;20257;-85
2022/08/02 10:58:21;;;;;;;4.97;1.75;;;;;;;;;;4940465;29;20223;-82
2022/08/02 11:00:49;;;;;;;3.20;1.35;;;;;;;;;;4909311;29;20219;-86
2022/08/02 11:03:29;;;;;;;4.20;1.50;;;;;;;;;;4924323;29;20231;-87
2022/08/02 11:06:09;;;;;;;2.08;1.30;;;;;;;;;;4949999;29;20249;-88
2022/08/02 11:08:35;;;;;;;3.00;1.25;;;;;;;;;;4917213;29;20250;-85
2022/08/02 11:11:23;;;;;;;3.92;1.63;;;;;;;;;;4933733;29;20223;-88
2022/08/02 11:14:07;;;;;;;1.48;1.02;;;;;;;;;;4957575;29;20223;-85
2022/08/02 11:16:55;;;;;;;3.13;1.38;;;;;;;;;;4929980;29;20216;-84
2022/08/02 11:19:25;;;;;;;2.22;1.38;;;;;;;;;;4947872;29;20241;-84
2022/08/02 11:22:10;;;;;;;3.83;1.73;;;;;;;;;;4928248;29;20218;-86
2022/08/02 11:24:39;;;;;;;4.55;1.33;;;;;;;;;;4931652;29;20224;-85
2022/08/02 11:27:08;;;;;;;4.28;1.60;;;;;;;;;;4906125;28;20303;-87
2022/08/02 11:29:36;;;;;;;3.70;1.38;;;;;;;;;;4914499;29;20684;-86
2022/08/02 11:32:04;;;;;;;1.92;1.40;;;;;;;;;;4930301;29;20238;-85
2022/08/02 11:34:35;;;;;;;2.35;1.30;;;;;;;;;;4913400;29;20251;-86
2022/08/02 11:37:01;;;;;;;3.22;1.50;;;;;;;;;;4936002;29;20226;-84
2022/08/02 11:39:26;;;;;;;2.28;1.30;;;;;;;;;;4900399;29;20219;-87
2022/08/02 11:41:56;;;;;;;2.58;1.30;;;;;;;;;;4906134;28;20325;-84
2022/08/02 11:44:23;;;;;;;3.35;1.70;;;;;;;;;;4909032;28;20253;-85
2022/08/02 11:46:59;;;;;;;2.58;1.58;;;;;;;;;;4935602;29;20238;-83
2022/08/02 11:49:27;;;;;;;3.58;1.40;;;;;;;;;;4926268;29;20222;-87
2022/08/02 11:52:00;;;;;;;1.30;1.20;;;;;;;;;;4935584;29;20222;-85
2022/08/02 11:54:32;;;;;;;2.63;1.33;;;;;;;;;;4948116;29;20245;-84
2022/08/02 11:57:19;;;;;;;2.53;1.40;;;;;;;;;;4927913;29;20227;-85
2022/08/02 11:59:49;;;;;;;2.28;1.27;;;;;;;;;;4944349;29;20222;-88
2022/08/02 12:02:18;;;;;;;4.20;1.50;;;;;;;;;;4904180;29;20223;-85
2022/08/02 12:04:51;;;;;;;3.70;1.50;;;;;;;;;;4922221;29;20234;-84
2022/08/02 12:07:20;;;;;;;1.77;1.38;;;;;;;;;;4927267;29;20230;-85
2022/08/02 12:09:46;;;;;;;3.58;1.58;;;;;;;;;;4929562;29;20215;-85
2022/08/02 12:12:13;;;;;;;2.05;1.30;;;;;;;;;;4944529;28;21063;-84
2022/08/02 12:14:44;;;;;;;2.67;1.25;;;;;;;;;;4927069;29;20234;-85
2022/08/02 12:20:01;;;;;;;1.63;1.30;;;;;;;;;;4916878;28;20307;-85
2022/08/02 12:22:29;;;;;;;4.38;1.40;;;;;;;;;;4909799;29;20288;-87
2022/08/02 12:24:59;;;;;;;3.30;1.30;;;;;;;;;;4945444;29;20245;-87
2022/08/02 12:27:30;;;;;;;4.50;1.30;;;;;;;;;;4927871;29;20227;-86
2022/08/02 12:30:05;;;;;;;1.67;1.17;;;;;;;;;;4940743;28;20696;-83
2022/08/02 12:32:32;;;;;;;3.10;1.40;;;;;;;;;;4929480;29;20234;-84
2022/08/02 12:35:01;;;;;;;4.63;1.40;;;;;;;;;;4922678;29;20226;-84
2022/08/02 12:37:29;;;;;;;1.50;1.20;;;;;;;;;;4942928;29;20229;-85
2022/08/02 12:39:57;;;;;;;1.17;1.02;;;;;;;;;;4922366;29;20238;-82
2022/08/02 12:42:25;;;;;;;3.45;1.50;;;;;;;;;;4928653;28;20227;-83
2022/08/02 12:44:56;;;;;;;2.47;1.23;;;;;;;;;;4926994;28;20230;-85
2022/08/02 12:47:22;;;;;;;3.85;1.50;;;;;;;;;;4919333;28;20261;-83
2022/08/02 12:50:13;;;;;;;2.17;1.20;;;;;;;;;;4925084;29;20241;-85
2022/08/02 12:52:38;;;;;;;3.30;1.45;;;;;;;;;;4940835;29;20226;-85
2022/08/02 12:55:20;;;;;;;2.42;1.35;;;;;;;;;;4935632;29;20239;-85
2022/08/02 12:57:57;;;;;;;1.23;1.10;;;;;;;;;;4925570;29;20235;-87
2022/08/02 13:00:32;;;;;;;1.60;1.20;;;;;;;;;;4947310;28;20234;-84
2022/08/02 13:02:58;;;;;;;2.72;1.20;;;;;;;;;;4910331;28;20812;-85
2022/08/02 13:05:29;;;;;;;2.03;1.20;;;;;;;;;;4925794;29;20270;-88
2022/08/02 13:07:56;;;;;;;4.22;1.30;;;;;;;;;;4907647;29;20291;-84
2022/08/02 13:10:24;;;;;;;1.55;1.00;;;;;;;;;;4919039;29;20226;-87
2022/08/02 13:12:52;;;;;;;2.35;1.10;;;;;;;;;;4929598;29;20238;-84
2022/08/02 13:15:20;;;;;;;2.38;1.10;;;;;;;;;;4912319;29;20225;-83
2022/08/02 13:17:46;;;;;;;1.10;0.90;;;;;;;;;;4915639;29;20250;-85
2022/08/02 13:20:18;;;;;;;3.90;0.98;;;;;;;;;;4930787;29;20231;-86
2022/08/02 13:22:44;;;;;;;1.25;1.00;;;;;;;;;;4922228;29;20219;-85
2022/08/02 13:25:12;;;;;;;1.35;1.00;;;;;;;;;;4934824;28;20230;-84
2022/08/02 13:27:45;;;;;;;1.38;1.02;;;;;;;;;;4922723;29;20247;-83
2022/08/02 13:30:19;;;;;;;1.77;1.10;;;;;;;;;;4927365;29;20254;-87
2022/08/02 13:33:08;;;;;;;1.90;0.93;;;;;;;;;;4913113;29;20219;-86
2022/08/02 13:35:38;;;;;;;2.45;1.10;;;;;;;;;;4955603;28;20230;-86
2022/08/02 13:38:05;;;;;;;1.40;1.10;;;;;;;;;;4929852;29;20290;-86
2022/08/02 13:40:33;;;;;;;1.38;1.00;;;;;;;;;;4957466;29;20199;-86
2022/08/02 13:43:03;;;;;;;1.48;1.15;;;;;;;;;;4944939;28;20231;-85
2022/08/02 13:45:33;;;;;;;3.45;1.40;;;;;;;;;;4942654;28;20229;-86
2022/08/02 13:47:59;;;;;;;2.13;1.20;;;;;;;;;;4941261;29;20281;-85
2022/08/02 13:50:28;;;;;;;1.45;1.10;;;;;;;;;;4950650;29;20223;-83
2022/08/02 13:52:57;;;;;;;1.25;1.08;;;;;;;;;;4942749;29;20222;-84
2022/08/02 13:55:31;;;;;;;2.33;1.17;;;;;;;;;;4923203;29;20290;-85
2022/08/02 13:58:03;;;;;;;1.25;1.15;;;;;;;;;;4932266;29;20278;-87
2022/08/02 14:00:31;;;;;;;2.97;1.20;;;;;;;;;;4914607;29;20229;-87
2022/08/02 14:02:59;;;;;;;3.67;1.10;;;;;;;;;;4932555;28;20223;-86
2022/08/02 14:05:29;;;;;;;1.42;1.10;;;;;;;;;;4916257;29;20250;-85
2022/08/02 14:07:59;;;;;;;2.60;1.30;;;;;;;;;;4953062;28;20219;-84
2022/08/02 14:10:27;;;;;;;2.40;1.20;;;;;;;;;;4925431;29;20228;-89
2022/08/02 14:12:54;;;;;;;1.67;1.20;;;;;;;;;;4940818;28;20215;-89
2022/08/02 14:15:19;;;;;;;1.30;1.20;;;;;;;;;;4924319;29;20235;-83
2022/08/02 14:17:45;;;;;;;2.28;1.35;;;;;;;;;;4928886;28;20274;-85
2022/08/02 14:20:14;;;;;;;2.08;1.35;;;;;;;;;;4921280;28;20211;-87
2022/08/02 14:22:42;;;;;;;1.73;1.10;;;;;;;;;;4938356;29;20238;-85
2022/08/02 14:25:08;;;;;;;1.90;1.20;;;;;;;;;;4919803;29;20263;-85
2022/08/02 14:27:34;;;;;;;1.80;1.20;;;;;;;;;;4921372;29;20227;-84
2022/08/02 14:30:01;;;;;;;1.90;1.27;;;;;;;;;;4921529;29;20223;-85
2022/08/02 14:32:27;;;;;;;1.58;1.17;;;;;;;;;;4927411;29;20400;-84
2022/08/02 14:34:53;;;;;;;2.03;1.30;;;;;;;;;;4940624;29;20676;-83
2022/08/02 14:37:21;;;;;;;1.73;1.25;;;;;;;;;;4947025;28;20215;-87
2022/08/02 14:39:47;;;;;;;2.08;1.17;;;;;;;;;;4914182;29;20251;-86
2022/08/02 14:42:15;;;;;;;1.60;1.40;;;;;;;;;;4914588;29;20227;-87
2022/08/02 14:44:43;;;;;;;1.65;1.30;;;;;;;;;;4909409;29;20767;-86
2022/08/02 14:47:09;;;;;;;2.65;1.50;;;;;;;;;;4931575;28;20226;-85
2022/08/02 14:49:36;;;;;;;1.33;1.20;;;;;;;;;;4923584;29;20246;-86
2022/08/02 14:52:02;;;;;;;1.67;1.50;;;;;;;;;;4926920;28;20223;-86
2022/08/02 14:54:33;;;;;;;3.67;1.63;;;;;;;;;;4908763;29;20245;-84
2022/08/02 14:57:02;;;;;;;2.80;1.58;;;;;;;;;;4959617;29;20581;-87
2022/08/02 14:59:27;;;;;;;1.63;1.50;;;;;;;;;;4902109;29;20220;-87
2022/08/02 15:01:53;;;;;;;3.08;1.70;;;;;;;;;;4910432;29;20237;-86